Time,TemperatureF,DewpointF,PressureIn,WindDirection,WindDirectionDegrees,WindSpeedMPH,WindSpeedGustMPH,Humidity,HourlyPrecipIn,Conditions,Clouds,dailyrainin,SoftwareType,DateUTC
2013-06-03 00:05:00,69.0,69.0,29.81,SE,135,0.0,1.0,100,0.00,,,0.00,TxWx,2013-06-03 04:05:00,
2013-06-03 00:10:00,69.0,69.0,29.81,SSE,157,0.0,0.0,100,0.00,,,0.00,TxWx,2013-06-03 04:10:00,
2013-06-03 00:15:00,69.0,69.0,29.81,SE,135,0.0,1.0,100,0.00,,,0.00,TxWx,2013-06-03 04:15:00,
2013-06-03 00:20:00,69.0,69.0,29.81,ESE,112,0.0,0.0,100,0.00,,,0.00,TxWx,2013-06-03 04:20:00,
2013-06-03 00:25:00,69.0,69.0,29.80,West,270,0.0,0.0,100,0.00,,,0.00,TxWx,2013-06-03 04:25:00,
2013-06-03 00:30:00,69.0,69.0,29.81,NE,45,0.0,0.0,100,0.00,,,0.00,TxWx,2013-06-03 04:30:00,
2013-06-03 00:35:00,69.0,69.0,29.81,NE,45,0.0,0.0,100,0.00,,,0.00,TxWx,2013-06-03 04:35:00,
2013-06-03 00:40:00,69.0,69.0,29.81,SSW,202,0.0,0.0,100,0.00,,,0.00,TxWx,2013-06-03 04:40:00,
2013-06-03 00:45:00,69.0,69.0,29.82,SSE,157,0.0,0.0,100,0.00,,,0.00,TxWx,2013-06-03 04:45:00,
2013-06-03 00:50:00,69.0,69.0,29.82,ESE,112,0.0,0.0,100,0.00,,,0.00,TxWx,2013-06-03 04:50:00,
2013-06-03 00:55:00,69.0,69.0,29.82,East,90,2.0,3.0,100,0.00,,,0.00,TxWx,2013-06-03 04:55:00,
2013-06-03 01:00:00,69.0,69.0,29.81,East,90,1.0,2.0,100,0.00,,,0.00,TxWx,2013-06-03 05:00:00,
2013-06-03 01:05:00,69.0,69.0,29.81,ESE,112,0.0,0.0,100,0.00,,,0.00,TxWx,2013-06-03 05:05:00,
2013-06-03 01:11:00,69.0,69.0,29.81,ESE,112,0.0,0.0,100,0.00,,,0.00,TxWx,2013-06-03 05:11:00,
2013-06-03 01:16:00,69.0,69.0,29.81,SE,135,0.0,0.0,100,0.00,,,0.00,TxWx,2013-06-03 05:16:00,
2013-06-03 01:21:00,69.0,69.0,29.81,ESE,112,0.0,0.0,100,0.00,,,0.00,TxWx,2013-06-03 05:21:00,
2013-06-03 01:26:00,69.0,69.0,29.81,ESE,112,0.0,0.0,100,0.00,,,0.00,TxWx,2013-06-03 05:26:00,
2013-06-03 01:31:00,69.0,69.0,29.81,ESE,112,0.0,0.0,100,0.00,,,0.00,TxWx,2013-06-03 05:31:00,
2013-06-03 01:36:00,69.0,69.0,29.81,SE,135,0.0,0.0,100,0.00,,,0.00,TxWx,2013-06-03 05:36:00,
2013-06-03 01:41:00,69.0,69.0,29.81,ESE,112,0.0,0.0,100,0.00,,,0.00,TxWx,2013-06-03 05:41:00,
2013-06-03 01:42:00,63.0,55.0,29.90,South,180,2.0,6.0,75,0.00,,,0.00,TxWx,2013-06-03 05:42:00,
2013-06-03 01:43:00,63.0,55.0,29.90,West,270,4.0,5.0,75,0.00,,,0.00,TxWx,2013-06-03 05:43:00,
2013-06-03 01:44:00,63.0,55.0,29.90,NE,45,3.0,5.0,75,0.00,,,0.00,TxWx,2013-06-03 05:44:00,
2013-06-03 01:45:00,63.0,55.0,29.90,South,180,1.0,2.0,75,0.00,,,0.00,TxWx,2013-06-03 05:45:00,
2013-06-03 01:46:00,69.0,69.0,29.82,ESE,112,0.0,0.0,100,0.00,,,0.00,TxWx,2013-06-03 05:46:00,
2013-06-03 01:51:00,69.0,69.0,29.82,SSE,157,0.0,0.0,100,0.00,,,0.00,TxWx,2013-06-03 05:51:00,
2013-06-03 01:56:00,69.0,69.0,29.82,SSE,157,0.0,0.0,100,0.00,,,0.00,TxWx,2013-06-03 05:56:00,
2013-06-03 02:01:00,69.0,69.0,29.81,ESE,112,0.0,0.0,100,0.00,,,0.00,TxWx,2013-06-03 06:01:00,
2013-06-03 02:06:00,69.0,69.0,29.81,ESE,112,0.0,0.0,100,0.00,,,0.00,TxWx,2013-06-03 06:06:00,
2013-06-03 02:11:00,69.0,69.0,29.82,ESE,112,0.0,0.0,100,0.00,,,0.00,TxWx,2013-06-03 06:11:00,
2013-06-03 02:16:00,69.0,69.0,29.82,ESE,112,0.0,0.0,100,0.00,,,0.00,TxWx,2013-06-03 06:16:00,
2013-06-03 02:21:00,69.0,69.0,29.82,East,90,2.0,3.0,100,0.00,,,0.00,TxWx,2013-06-03 06:21:00,
2013-06-03 02:29:00,69.0,69.0,29.81,ESE,112,0.0,0.0,100,0.00,,,0.00,TxWx,2013-06-03 06:29:00,
2013-06-03 02:34:00,69.0,69.0,29.81,ESE,112,0.0,0.0,100,0.00,,,0.00,TxWx,2013-06-03 06:34:00,
2013-06-03 02:40:00,69.0,69.0,29.81,ESE,112,0.0,0.0,100,0.00,,,0.00,TxWx,2013-06-03 06:40:00,
2013-06-03 02:45:00,69.0,69.0,29.81,SE,135,0.0,0.0,100,0.00,,,0.00,TxWx,2013-06-03 06:45:00,
2013-06-03 02:50:00,69.0,69.0,29.81,SW,225,0.0,0.0,100,0.00,,,0.00,TxWx,2013-06-03 06:50:00,
2013-06-03 02:55:00,69.0,69.0,29.80,NE,45,1.0,1.0,100,0.00,,,0.00,TxWx,2013-06-03 06:55:00,
2013-06-03 03:00:00,69.0,69.0,29.80,South,180,0.0,0.0,100,0.00,,,0.00,TxWx,2013-06-03 07:00:00,
2013-06-03 03:05:00,69.0,69.0,29.80,WSW,247,0.0,0.0,100,0.00,,,0.00,TxWx,2013-06-03 07:05:00,
2013-06-03 03:10:00,69.0,69.0,29.80,WSW,247,0.0,1.0,100,0.00,,,0.00,TxWx,2013-06-03 07:10:00,
2013-06-03 03:15:00,69.0,69.0,29.80,SSE,157,1.0,1.0,100,0.00,,,0.00,TxWx,2013-06-03 07:15:00,
2013-06-03 03:20:00,69.0,69.0,29.80,ESE,112,0.0,0.0,100,0.00,,,0.00,TxWx,2013-06-03 07:20:00,
2013-06-03 03:25:00,69.0,69.0,29.80,East,90,0.0,0.0,100,0.00,,,0.00,TxWx,2013-06-03 07:25:00,
2013-06-03 03:30:00,69.0,69.0,29.80,ESE,112,0.0,0.0,100,0.00,,,0.00,TxWx,2013-06-03 07:30:00,
2013-06-03 03:35:00,69.0,69.0,29.80,SSE,157,0.0,0.0,100,0.00,,,0.00,TxWx,2013-06-03 07:35:00,
2013-06-03 03:40:00,69.0,69.0,29.80,SSE,157,0.0,0.0,100,0.00,,,0.00,TxWx,2013-06-03 07:40:00,
2013-06-03 03:45:00,69.0,69.0,29.80,NNW,337,1.0,2.0,100,0.00,,,0.00,TxWx,2013-06-03 07:45:00,
2013-06-03 03:50:00,68.0,68.0,29.81,South,180,0.0,0.0,100,0.00,,,0.00,TxWx,2013-06-03 07:50:00,
2013-06-03 03:56:00,68.0,68.0,29.81,ESE,112,0.0,0.0,100,0.00,,,0.00,TxWx,2013-06-03 07:56:00,
2013-06-03 04:01:00,68.0,68.0,29.81,ENE,67,0.0,0.0,100,0.00,,,0.00,TxWx,2013-06-03 08:01:00,
2013-06-03 04:06:00,68.0,68.0,29.81,East,90,0.0,1.0,100,0.00,,,0.00,TxWx,2013-06-03 08:06:00,
2013-06-03 04:11:00,68.0,68.0,29.81,ENE,67,0.0,1.0,100,0.00,,,0.00,TxWx,2013-06-03 08:11:00,
2013-06-03 04:16:00,68.0,68.0,29.81,ENE,67,0.0,0.0,100,0.00,,,0.00,TxWx,2013-06-03 08:16:00,
2013-06-03 04:17:00,68.0,57.0,29.88,WNW,292,6.0,6.0,68,0.00,,,0.00,TxWx,2013-06-03 08:17:00,
2013-06-03 04:21:00,68.0,68.0,29.81,West,270,1.0,2.0,100,0.00,,,0.00,TxWx,2013-06-03 08:21:00,
2013-06-03 04:22:00,68.0,56.0,29.88,NNW,337,3.0,5.0,67,0.00,,,0.00,TxWx,2013-06-03 08:22:00,
2013-06-03 04:23:00,68.0,56.0,29.88,SSW,202,4.0,4.0,67,0.00,,,0.00,TxWx,2013-06-03 08:23:00,
2013-06-03 04:24:00,68.0,57.0,29.88,NNW,337,8.0,9.0,67,0.00,,,0.00,TxWx,2013-06-03 08:24:00,
2013-06-03 04:25:00,67.0,56.0,29.88,NNW,337,5.0,8.0,67,0.00,,,0.00,TxWx,2013-06-03 08:25:00,
2013-06-03 04:26:00,68.0,68.0,29.82,ESE,112,0.0,0.0,100,0.00,,,0.00,TxWx,2013-06-03 08:26:00,
2013-06-03 04:31:00,67.0,67.0,29.81,WSW,247,3.0,5.0,100,0.00,,,0.00,TxWx,2013-06-03 08:31:00,
2013-06-03 04:36:00,67.0,67.0,29.81,NW,315,0.0,1.0,100,0.00,,,0.00,TxWx,2013-06-03 08:36:00,
2013-06-03 04:41:00,66.0,66.0,29.82,South,180,0.0,3.0,100,0.00,,,0.00,TxWx,2013-06-03 08:41:00,
2013-06-03 04:47:00,66.0,66.0,29.82,West,270,3.0,5.0,100,0.00,,,0.00,TxWx,2013-06-03 08:47:00,
2013-06-03 04:52:00,65.0,65.0,29.82,SSW,202,0.0,1.0,100,0.00,,,0.00,TxWx,2013-06-03 08:52:00,
2013-06-03 04:57:00,65.0,65.0,29.82,WSW,247,3.0,3.0,100,0.00,,,0.00,TxWx,2013-06-03 08:57:00,
2013-06-03 05:02:00,65.0,65.0,29.82,WSW,247,5.0,6.0,100,0.00,,,0.00,TxWx,2013-06-03 09:02:00,
2013-06-03 05:07:00,65.0,65.0,29.82,NNW,337,1.0,1.0,100,0.00,,,0.00,TxWx,2013-06-03 09:07:00,
2013-06-03 05:12:00,65.0,65.0,29.82,SW,225,0.0,0.0,100,0.00,,,0.00,TxWx,2013-06-03 09:12:00,
2013-06-03 05:17:00,65.0,65.0,29.82,ENE,67,0.0,1.0,100,0.00,,,0.00,TxWx,2013-06-03 09:17:00,
2013-06-03 05:22:00,66.0,66.0,29.82,NNW,337,0.0,1.0,100,0.00,,,0.00,TxWx,2013-06-03 09:22:00,
2013-06-03 05:27:00,65.0,65.0,29.83,East,90,0.0,1.0,100,0.00,,,0.00,TxWx,2013-06-03 09:27:00,
2013-06-03 05:32:00,65.0,65.0,29.83,ESE,112,0.0,0.0,100,0.00,,,0.00,TxWx,2013-06-03 09:32:00,
2013-06-03 05:37:00,65.0,65.0,29.83,NE,45,0.0,1.0,100,0.00,,,0.00,TxWx,2013-06-03 09:37:00,
2013-06-03 05:42:00,65.0,65.0,29.83,SE,135,0.0,0.0,100,0.00,,,0.00,TxWx,2013-06-03 09:42:00,
2013-06-03 05:47:00,65.0,65.0,29.83,East,90,0.0,0.0,100,0.00,,,0.00,TxWx,2013-06-03 09:47:00,
2013-06-03 05:52:00,65.0,65.0,29.83,West,270,1.0,1.0,100,0.00,,,0.00,TxWx,2013-06-03 09:52:00,
2013-06-03 06:00:00,65.0,65.0,29.83,ESE,112,0.0,0.0,100,0.00,,,0.00,TxWx,2013-06-03 10:00:00,
2013-06-03 06:05:00,65.0,65.0,29.83,East,90,0.0,1.0,100,0.00,,,0.00,TxWx,2013-06-03 10:05:00,
2013-06-03 06:10:00,65.0,65.0,29.83,NE,45,0.0,0.0,100,0.00,,,0.00,TxWx,2013-06-03 10:10:00,
2013-06-03 06:15:00,65.0,65.0,29.83,ENE,67,0.0,0.0,100,0.00,,,0.00,TxWx,2013-06-03 10:15:00,
2013-06-03 06:20:00,65.0,65.0,29.83,SSE,157,0.0,0.0,99,0.00,,,0.00,TxWx,2013-06-03 10:20:00,
2013-06-03 06:26:00,65.0,65.0,29.83,NE,45,0.0,1.0,99,0.00,,,0.00,TxWx,2013-06-03 10:26:00,
2013-06-03 06:31:00,65.0,65.0,29.83,NE,45,0.0,1.0,99,0.00,,,0.00,TxWx,2013-06-03 10:31:00,
2013-06-03 06:36:00,65.0,65.0,29.84,ESE,112,0.0,0.0,99,0.00,,,0.00,TxWx,2013-06-03 10:36:00,
2013-06-03 06:41:00,65.0,64.0,29.84,WSW,247,3.0,3.0,98,0.00,,,0.00,TxWx,2013-06-03 10:41:00,
2013-06-03 06:46:00,65.0,64.0,29.84,WNW,292,5.0,6.0,98,0.00,,,0.00,TxWx,2013-06-03 10:46:00,
2013-06-03 06:51:00,64.0,63.0,29.84,ESE,112,0.0,0.0,97,0.00,,,0.00,TxWx,2013-06-03 10:51:00,
2013-06-03 06:56:00,65.0,64.0,29.85,ESE,112,0.0,1.0,97,0.00,,,0.00,TxWx,2013-06-03 10:56:00,
2013-06-03 07:01:00,64.0,63.0,29.85,North,0,4.0,5.0,96,0.00,,,0.00,TxWx,2013-06-03 11:01:00,
2013-06-03 07:06:00,64.0,63.0,29.85,NNW,337,3.0,3.0,95,0.00,,,0.00,TxWx,2013-06-03 11:06:00,
2013-06-03 07:11:00,64.0,63.0,29.85,East,90,0.0,0.0,95,0.00,,,0.00,TxWx,2013-06-03 11:11:00,
2013-06-03 07:16:00,64.0,62.0,29.85,NW,315,5.0,5.0,95,0.00,,,0.00,TxWx,2013-06-03 11:16:00,
2013-06-03 07:21:00,64.0,62.0,29.85,West,270,5.0,6.0,94,0.00,,,0.00,TxWx,2013-06-03 11:21:00,
2013-06-03 07:26:00,64.0,62.0,29.86,SW,225,3.0,5.0,94,0.00,,,0.00,TxWx,2013-06-03 11:26:00,
2013-06-03 07:31:00,64.0,62.0,29.86,NNE,22,1.0,3.0,93,0.00,,,0.00,TxWx,2013-06-03 11:31:00,
2013-06-03 07:37:00,64.0,62.0,29.86,NW,315,3.0,4.0,92,0.00,,,0.00,TxWx,2013-06-03 11:37:00,
2013-06-03 07:42:00,64.0,61.0,29.86,SW,225,3.0,3.0,91,0.00,,,0.00,TxWx,2013-06-03 11:42:00,
2013-06-03 07:47:00,64.0,61.0,29.86,WNW,292,5.0,6.0,89,0.00,,,0.00,TxWx,2013-06-03 11:47:00,
2013-06-03 07:52:00,65.0,62.0,29.86,SSE,157,3.0,4.0,89,0.00,,,0.00,TxWx,2013-06-03 11:52:00,
2013-06-03 07:57:00,65.0,61.0,29.86,WNW,292,7.0,7.0,87,0.00,,,0.00,TxWx,2013-06-03 11:57:00,
2013-06-03 08:02:00,65.0,60.0,29.86,SW,225,3.0,3.0,85,0.00,,,0.00,TxWx,2013-06-03 12:02:00,
2013-06-03 08:07:00,65.0,60.0,29.86,West,270,7.0,7.0,84,0.00,,,0.00,TxWx,2013-06-03 12:07:00,
2013-06-03 08:12:00,65.0,60.0,29.86,South,180,3.0,3.0,84,0.00,,,0.00,TxWx,2013-06-03 12:12:00,
2013-06-03 08:17:00,66.0,61.0,29.86,NNW,337,5.0,6.0,84,0.00,,,0.00,TxWx,2013-06-03 12:17:00,
2013-06-03 08:22:00,67.0,61.0,29.87,West,270,5.0,8.0,83,0.00,,,0.00,TxWx,2013-06-03 12:22:00,
2013-06-03 08:27:00,66.0,60.0,29.87,WNW,292,9.0,10.0,81,0.00,,,0.00,TxWx,2013-06-03 12:27:00,
2013-06-03 08:32:00,65.0,59.0,29.87,SSW,202,8.0,9.0,80,0.00,,,0.00,TxWx,2013-06-03 12:32:00,
2013-06-03 08:40:00,64.0,58.0,29.87,West,270,8.0,10.0,81,0.00,,,0.00,TxWx,2013-06-03 12:40:00,
2013-06-03 08:46:00,64.0,58.0,29.88,West,270,13.0,13.0,81,0.00,,,0.00,TxWx,2013-06-03 12:46:00,
2013-06-03 08:51:00,64.0,58.0,29.88,WSW,247,6.0,8.0,81,0.00,,,0.00,TxWx,2013-06-03 12:51:00,
2013-06-03 08:56:00,64.0,58.0,29.89,WNW,292,5.0,6.0,81,0.00,,,0.00,TxWx,2013-06-03 12:56:00,
2013-06-03 09:01:00,64.0,58.0,29.89,West,270,8.0,13.0,80,0.00,,,0.00,TxWx,2013-06-03 13:01:00,
2013-06-03 09:06:00,63.0,56.0,29.89,WNW,292,10.0,10.0,79,0.00,,,0.00,TxWx,2013-06-03 13:06:00,
2013-06-03 09:11:00,63.0,56.0,29.88,WNW,292,8.0,8.0,79,0.00,,,0.00,TxWx,2013-06-03 13:11:00,
2013-06-03 09:16:00,63.0,57.0,29.88,NNW,337,5.0,7.0,80,0.00,,,0.00,TxWx,2013-06-03 13:16:00,
2013-06-03 09:21:00,64.0,58.0,29.89,South,180,6.0,7.0,80,0.00,,,0.00,TxWx,2013-06-03 13:21:00,
2013-06-03 09:26:00,64.0,57.0,29.89,NNW,337,7.0,8.0,78,0.00,,,0.00,TxWx,2013-06-03 13:26:00,
2013-06-03 09:31:00,64.0,57.0,29.89,NNW,337,8.0,9.0,78,0.00,,,0.00,TxWx,2013-06-03 13:31:00,
2013-06-03 09:36:00,64.0,57.0,29.89,SW,225,8.0,8.0,78,0.00,,,0.00,TxWx,2013-06-03 13:36:00,
2013-06-03 09:41:00,64.0,57.0,29.89,NW,315,3.0,3.0,78,0.00,,,0.00,TxWx,2013-06-03 13:41:00,
2013-06-03 09:46:00,64.0,56.0,29.90,West,270,6.0,6.0,77,0.00,,,0.00,TxWx,2013-06-03 13:46:00,
2013-06-03 09:52:00,64.0,56.0,29.90,West,270,7.0,8.0,77,0.00,,,0.00,TxWx,2013-06-03 13:52:00,
2013-06-03 09:57:00,64.0,56.0,29.90,WNW,292,11.0,11.0,76,0.00,,,0.00,TxWx,2013-06-03 13:57:00,
2013-06-03 10:02:00,64.0,56.0,29.90,WSW,247,13.0,13.0,77,0.00,,,0.00,TxWx,2013-06-03 14:02:00,
2013-06-03 10:07:00,64.0,56.0,29.90,SSW,202,1.0,2.0,77,0.00,,,0.00,TxWx,2013-06-03 14:07:00,
2013-06-03 10:12:00,64.0,56.0,29.91,WNW,292,8.0,11.0,76,0.00,,,0.00,TxWx,2013-06-03 14:12:00,
2013-06-03 10:17:00,64.0,56.0,29.91,SW,225,8.0,12.0,75,0.00,,,0.00,TxWx,2013-06-03 14:17:00,
2013-06-03 10:22:00,63.0,55.0,29.90,SSW,202,11.0,13.0,76,0.00,,,0.00,TxWx,2013-06-03 14:22:00,
2013-06-03 10:27:00,63.0,55.0,29.90,SW,225,6.0,6.0,76,0.00,,,0.00,TxWx,2013-06-03 14:27:00,
2013-06-03 10:32:00,63.0,55.0,29.90,WSW,247,8.0,8.0,76,0.00,,,0.00,TxWx,2013-06-03 14:32:00,
2013-06-03 10:37:00,63.0,55.0,29.90,SW,225,6.0,8.0,75,0.00,,,0.00,TxWx,2013-06-03 14:37:00,
2013-06-03 10:46:00,64.0,56.0,29.90,NW,315,8.0,8.0,76,0.00,,,0.00,TxWx,2013-06-03 14:46:00,
2013-06-03 10:51:00,64.0,56.0,29.90,SW,225,8.0,10.0,75,0.00,,,0.00,TxWx,2013-06-03 14:51:00,
2013-06-03 10:56:00,64.0,56.0,29.90,NW,315,3.0,5.0,75,0.00,,,0.00,TxWx,2013-06-03 14:56:00,
2013-06-03 11:01:00,64.0,56.0,29.90,NNW,337,5.0,6.0,75,0.00,,,0.00,TxWx,2013-06-03 15:01:00,
2013-06-03 11:06:00,64.0,56.0,29.90,WSW,247,5.0,5.0,74,0.00,,,0.00,TxWx,2013-06-03 15:06:00,
2013-06-03 11:11:00,64.0,55.0,29.90,SW,225,6.0,7.0,73,0.00,,,0.00,TxWx,2013-06-03 15:11:00,
2013-06-03 11:16:00,64.0,55.0,29.90,WSW,247,4.0,4.0,73,0.00,,,0.00,TxWx,2013-06-03 15:16:00,
2013-06-03 11:17:00,64.0,45.0,29.89,NW,315,5.0,8.0,51,0.00,,,0.00,TxWx,2013-06-03 15:17:00,
2013-06-03 11:18:00,64.0,45.0,29.89,WNW,292,6.0,8.0,51,0.00,,,0.00,TxWx,2013-06-03 15:18:00,
2013-06-03 11:19:00,64.0,45.0,29.89,NNW,337,7.0,8.0,51,0.00,,,0.00,TxWx,2013-06-03 15:19:00,
2013-06-03 11:20:00,64.0,45.0,29.89,West,270,5.0,5.0,51,0.00,,,0.00,TxWx,2013-06-03 15:20:00,
2013-06-03 11:21:00,64.0,55.0,29.90,SW,225,7.0,7.0,72,0.00,,,0.00,TxWx,2013-06-03 15:21:00,
2013-06-03 11:26:00,65.0,56.0,29.90,West,270,5.0,6.0,72,0.00,,,0.00,TxWx,2013-06-03 15:26:00,
2013-06-03 11:31:00,65.0,56.0,29.89,WSW,247,7.0,7.0,72,0.00,,,0.00,TxWx,2013-06-03 15:31:00,
2013-06-03 11:36:00,66.0,56.0,29.89,ENE,67,1.0,1.0,72,0.00,,,0.00,TxWx,2013-06-03 15:36:00,
2013-06-03 11:41:00,66.0,56.0,29.89,SW,225,7.0,8.0,69,0.00,,,0.00,TxWx,2013-06-03 15:41:00,
2013-06-03 11:46:00,67.0,57.0,29.89,WSW,247,10.0,12.0,70,0.00,,,0.00,TxWx,2013-06-03 15:46:00,
2013-06-03 11:51:00,66.0,56.0,29.89,WSW,247,5.0,5.0,70,0.00,,,0.00,TxWx,2013-06-03 15:51:00,
2013-06-03 11:56:00,66.0,56.0,29.89,NNW,337,7.0,8.0,70,0.00,,,0.00,TxWx,2013-06-03 15:56:00,
2013-06-03 12:02:00,67.0,56.0,29.89,South,180,5.0,6.0,69,0.00,,,0.00,TxWx,2013-06-03 16:02:00,
2013-06-03 12:07:00,67.0,56.0,29.89,SE,135,1.0,3.0,69,0.00,,,0.00,TxWx,2013-06-03 16:07:00,
2013-06-03 12:12:00,68.0,57.0,29.88,West,270,7.0,7.0,68,0.00,,,0.00,TxWx,2013-06-03 16:12:00,
2013-06-03 12:17:00,67.0,56.0,29.88,WNW,292,7.0,8.0,67,0.00,,,0.00,TxWx,2013-06-03 16:17:00,
2013-06-03 12:22:00,67.0,56.0,29.88,WNW,292,6.0,8.0,68,0.00,,,0.00,TxWx,2013-06-03 16:22:00,
2013-06-03 12:27:00,68.0,56.0,29.88,NW,315,10.0,11.0,66,0.00,,,0.00,TxWx,2013-06-03 16:27:00,
2013-06-03 12:32:00,68.0,57.0,29.88,WNW,292,3.0,5.0,67,0.00,,,0.00,TxWx,2013-06-03 16:32:00,
2013-06-03 12:37:00,68.0,56.0,29.88,NW,315,5.0,8.0,67,0.00,,,0.00,TxWx,2013-06-03 16:37:00,
2013-06-03 12:42:00,68.0,56.0,29.88,NNE,22,4.0,6.0,66,0.00,,,0.00,TxWx,2013-06-03 16:42:00,
2013-06-03 12:47:00,67.0,55.0,29.88,WSW,247,6.0,6.0,66,0.00,,,0.00,TxWx,2013-06-03 16:47:00,
2013-06-03 12:52:00,67.0,56.0,29.88,West,270,9.0,9.0,67,0.00,,,0.00,TxWx,2013-06-03 16:52:00,
2013-06-03 12:56:00,61.0,42.0,29.92,WSW,247,3.0,4.0,50,0.00,,,0.00,TxWx,2013-06-03 16:56:00,
2013-06-03 12:57:00,67.0,56.0,29.88,NE,45,3.0,3.0,67,0.00,,,0.00,TxWx,2013-06-03 16:57:00,
2013-06-03 12:58:00,61.0,42.0,29.92,WNW,292,4.0,4.0,50,0.00,,,0.00,TxWx,2013-06-03 16:58:00,
2013-06-03 12:59:00,61.0,42.0,29.92,SW,225,5.0,5.0,50,0.00,,,0.00,TxWx,2013-06-03 16:59:00,
2013-06-03 13:03:00,68.0,57.0,29.88,South,180,3.0,4.0,67,0.00,,,0.00,TxWx,2013-06-03 17:03:00,
2013-06-03 13:08:00,68.0,56.0,29.88,NW,315,2.0,3.0,67,0.00,,,0.00,TxWx,2013-06-03 17:08:00,
2013-06-03 13:13:00,68.0,56.0,29.88,SW,225,6.0,6.0,67,0.00,,,0.00,TxWx,2013-06-03 17:13:00,
2013-06-03 13:18:00,68.0,57.0,29.88,NNW,337,5.0,6.0,68,0.00,,,0.00,TxWx,2013-06-03 17:18:00,
2013-06-03 13:25:00,68.0,56.0,29.88,NNW,337,3.0,3.0,67,0.00,,,0.00,TxWx,2013-06-03 17:25:00,
2013-06-03 13:30:00,67.0,55.0,29.88,NW,315,12.0,16.0,66,0.00,,,0.00,TxWx,2013-06-03 17:30:00,
2013-06-03 13:35:00,68.0,57.0,29.88,West,270,8.0,10.0,68,0.00,,,0.00,TxWx,2013-06-03 17:35:00,
2013-06-03 13:40:00,69.0,57.0,29.87,NNW,337,3.0,3.0,67,0.00,,,0.00,TxWx,2013-06-03 17:40:00,
2013-06-03 13:45:00,69.0,57.0,29.87,NW,315,6.0,6.0,66,0.00,,,0.00,TxWx,2013-06-03 17:45:00,
2013-06-03 13:50:00,69.0,57.0,29.87,SSW,202,7.0,7.0,66,0.00,,,0.00,TxWx,2013-06-03 17:50:00,
2013-06-03 13:56:00,69.0,57.0,29.87,West,270,10.0,10.0,67,0.00,,,0.00,TxWx,2013-06-03 17:56:00,
2013-06-03 14:01:00,69.0,57.0,29.87,WSW,247,5.0,8.0,66,0.00,,,0.00,TxWx,2013-06-03 18:01:00,
2013-06-03 14:06:00,68.0,56.0,29.87,WSW,247,5.0,8.0,66,0.00,,,0.00,TxWx,2013-06-03 18:06:00,
2013-06-03 14:11:00,68.0,56.0,29.86,West,270,6.0,6.0,65,0.00,,,0.00,TxWx,2013-06-03 18:11:00,
2013-06-03 14:16:00,68.0,56.0,29.86,WNW,292,7.0,12.0,65,0.00,,,0.00,TxWx,2013-06-03 18:16:00,
2013-06-03 14:21:00,69.0,57.0,29.87,SW,225,9.0,9.0,66,0.00,,,0.00,TxWx,2013-06-03 18:21:00,
2013-06-03 14:26:00,69.0,56.0,29.86,WSW,247,9.0,9.0,64,0.00,,,0.00,TxWx,2013-06-03 18:26:00,
2013-06-03 14:31:00,68.0,56.0,29.86,SSE,157,10.0,10.0,65,0.00,,,0.00,TxWx,2013-06-03 18:31:00,
2013-06-03 14:36:00,69.0,57.0,29.86,SSW,202,3.0,3.0,66,0.00,,,0.00,TxWx,2013-06-03 18:36:00,
2013-06-03 14:41:00,69.0,56.0,29.86,West,270,4.0,5.0,64,0.00,,,0.00,TxWx,2013-06-03 18:41:00,
2013-06-03 14:46:00,69.0,56.0,29.86,SW,225,3.0,5.0,65,0.00,,,0.00,TxWx,2013-06-03 18:46:00,
2013-06-03 14:51:00,69.0,56.0,29.86,NNW,337,4.0,4.0,64,0.00,,,0.00,TxWx,2013-06-03 18:51:00,
2013-06-03 14:56:00,69.0,56.0,29.86,WSW,247,7.0,11.0,63,0.00,,,0.00,TxWx,2013-06-03 18:56:00,
2013-06-03 15:01:00,69.0,56.0,29.86,West,270,5.0,5.0,64,0.00,,,0.00,TxWx,2013-06-03 19:01:00,
2013-06-03 15:02:00,58.0,45.0,29.95,WNW,292,1.0,2.0,63,0.00,,,0.00,TxWx,2013-06-03 19:02:00,
2013-06-03 15:03:00,57.0,44.0,29.95,SSE,157,0.0,1.0,63,0.00,,,0.00,TxWx,2013-06-03 19:03:00,
2013-06-03 15:04:00,57.0,44.0,29.95,SSE,157,0.0,0.0,63,0.00,,,0.00,TxWx,2013-06-03 19:04:00,
2013-06-03 15:05:00,57.0,44.0,29.95,SSE,157,0.0,0.0,63,0.00,,,0.00,TxWx,2013-06-03 19:05:00,
2013-06-03 15:06:00,69.0,56.0,29.86,West,270,5.0,11.0,63,0.00,,,0.00,TxWx,2013-06-03 19:06:00,
2013-06-03 15:07:00,57.0,44.0,29.95,ENE,67,0.0,1.0,63,0.00,,,0.00,TxWx,2013-06-03 19:07:00,
2013-06-03 15:08:00,57.0,44.0,29.95,ESE,112,0.0,1.0,63,0.00,,,0.00,TxWx,2013-06-03 19:08:00,
2013-06-03 15:09:00,57.0,44.0,29.95,South,180,0.0,0.0,63,0.00,,,0.00,TxWx,2013-06-03 19:09:00,
2013-06-03 15:10:00,57.0,44.0,29.95,ESE,112,0.0,1.0,63,0.00,,,0.00,TxWx,2013-06-03 19:10:00,
2013-06-03 15:12:00,68.0,55.0,29.87,WSW,247,6.0,10.0,64,0.00,,,0.00,TxWx,2013-06-03 19:12:00,
2013-06-03 15:17:00,69.0,56.0,29.87,NW,315,13.0,14.0,64,0.00,,,0.00,TxWx,2013-06-03 19:17:00,
2013-06-03 15:22:00,69.0,56.0,29.86,West,270,6.0,9.0,64,0.00,,,0.00,TxWx,2013-06-03 19:22:00,
2013-06-03 15:27:00,69.0,56.0,29.86,NW,315,8.0,8.0,63,0.00,,,0.00,TxWx,2013-06-03 19:27:00,
2013-06-03 15:28:00,56.0,44.0,29.95,North,0,0.0,0.0,64,0.00,,,0.00,TxWx,2013-06-03 19:28:00,
2013-06-03 15:29:00,56.0,44.0,29.95,ENE,67,0.0,0.0,64,0.00,,,0.00,TxWx,2013-06-03 19:29:00,
2013-06-03 15:30:00,56.0,44.0,29.95,East,90,0.0,0.0,64,0.00,,,0.00,TxWx,2013-06-03 19:30:00,
2013-06-03 15:31:00,56.0,44.0,29.95,NE,45,2.0,2.0,64,0.00,,,0.00,TxWx,2013-06-03 19:31:00,
2013-06-03 15:32:00,69.0,56.0,29.86,WNW,292,13.0,13.0,64,0.00,,,0.00,TxWx,2013-06-03 19:32:00,
2013-06-03 15:37:00,69.0,56.0,29.86,NW,315,4.0,5.0,63,0.00,,,0.00,TxWx,2013-06-03 19:37:00,
2013-06-03 15:42:00,69.0,56.0,29.86,SW,225,10.0,10.0,63,0.00,,,0.00,TxWx,2013-06-03 19:42:00,
2013-06-03 15:47:00,69.0,56.0,29.86,South,180,3.0,4.0,63,0.00,,,0.00,TxWx,2013-06-03 19:47:00,
2013-06-03 15:52:00,69.0,55.0,29.86,NW,315,6.0,10.0,62,0.00,,,0.00,TxWx,2013-06-03 19:52:00,
2013-06-03 15:57:00,69.0,56.0,29.86,North,0,6.0,8.0,63,0.00,,,0.00,TxWx,2013-06-03 19:57:00,
2013-06-03 16:02:00,69.0,55.0,29.86,West,270,6.0,10.0,61,0.00,,,0.00,TxWx,2013-06-03 20:02:00,
2013-06-03 16:07:00,69.0,55.0,29.86,WNW,292,4.0,5.0,62,0.00,,,0.00,TxWx,2013-06-03 20:07:00,
2013-06-03 16:12:00,69.0,55.0,29.86,WNW,292,5.0,5.0,62,0.00,,,0.00,TxWx,2013-06-03 20:12:00,
2013-06-03 16:18:00,69.0,55.0,29.86,West,270,6.0,8.0,61,0.00,,,0.00,TxWx,2013-06-03 20:18:00,
2013-06-03 16:23:00,68.0,54.0,29.86,West,270,6.0,8.0,62,0.00,,,0.00,TxWx,2013-06-03 20:23:00,
2013-06-03 16:28:00,69.0,55.0,29.86,WNW,292,6.0,6.0,62,0.00,,,0.00,TxWx,2013-06-03 20:28:00,
2013-06-03 16:33:00,69.0,55.0,29.86,NW,315,8.0,13.0,61,0.00,,,0.00,TxWx,2013-06-03 20:33:00,
2013-06-03 16:38:00,69.0,55.0,29.86,WNW,292,4.0,5.0,62,0.00,,,0.00,TxWx,2013-06-03 20:38:00,
2013-06-03 16:40:00,54.0,44.0,29.96,ESE,112,0.0,0.0,69,0.00,,,0.00,TxWx,2013-06-03 20:40:00,
2013-06-03 16:41:00,54.0,44.0,29.96,ESE,112,0.0,0.0,69,0.00,,,0.00,TxWx,2013-06-03 20:41:00,
2013-06-03 16:42:00,54.0,44.0,29.96,ESE,112,0.0,0.0,69,0.00,,,0.00,TxWx,2013-06-03 20:42:00,
2013-06-03 16:43:00,69.0,54.0,29.86,SW,225,5.0,8.0,60,0.00,,,0.00,TxWx,2013-06-03 20:43:00,
2013-06-03 16:48:00,69.0,54.0,29.86,SW,225,8.0,10.0,60,0.00,,,0.00,TxWx,2013-06-03 20:48:00,
2013-06-03 16:53:00,69.0,55.0,29.86,West,270,10.0,11.0,61,0.00,,,0.00,TxWx,2013-06-03 20:53:00,
2013-06-03 16:58:00,69.0,55.0,29.86,WNW,292,6.0,9.0,61,0.00,,,0.00,TxWx,2013-06-03 20:58:00,
2013-06-03 17:03:00,69.0,55.0,29.86,WSW,247,9.0,11.0,61,0.00,,,0.00,TxWx,2013-06-03 21:03:00,
2013-06-03 17:04:00,54.0,44.0,29.97,ESE,112,0.0,0.0,70,0.00,,,0.00,TxWx,2013-06-03 21:04:00,
2013-06-03 17:05:00,54.0,44.0,29.97,SW,225,0.0,0.0,70,0.00,,,0.00,TxWx,2013-06-03 21:05:00,
2013-06-03 17:06:00,54.0,44.0,29.97,ESE,112,0.0,0.0,70,0.00,,,0.00,TxWx,2013-06-03 21:06:00,
2013-06-03 17:08:00,70.0,55.0,29.86,SSW,202,3.0,3.0,60,0.00,,,0.00,TxWx,2013-06-03 21:08:00,
2013-06-03 17:09:00,54.0,44.0,29.97,ESE,112,0.0,0.0,70,0.00,,,0.00,TxWx,2013-06-03 21:09:00,
2013-06-03 17:10:00,54.0,44.0,29.97,NW,315,0.0,0.0,70,0.00,,,0.00,TxWx,2013-06-03 21:10:00,
2013-06-03 17:11:00,54.0,44.0,29.97,ESE,112,0.0,0.0,70,0.00,,,0.00,TxWx,2013-06-03 21:11:00,
2013-06-03 17:12:00,54.0,44.0,29.97,ESE,112,0.0,0.0,70,0.00,,,0.00,TxWx,2013-06-03 21:12:00,
2013-06-03 17:13:00,69.0,54.0,29.86,SW,225,5.0,8.0,59,0.00,,,0.00,TxWx,2013-06-03 21:13:00,
2013-06-03 17:15:00,54.0,45.0,29.96,ESE,112,0.0,0.0,71,0.00,,,0.00,TxWx,2013-06-03 21:15:00,
2013-06-03 17:16:00,54.0,45.0,29.96,SE,135,0.0,0.0,71,0.00,,,0.00,TxWx,2013-06-03 21:16:00,
2013-06-03 17:17:00,54.0,45.0,29.96,SSE,157,0.0,0.0,71,0.00,,,0.00,TxWx,2013-06-03 21:17:00,
2013-06-03 17:18:00,54.0,45.0,29.96,SE,135,0.0,0.0,71,0.00,,,0.00,TxWx,2013-06-03 21:18:00,
2013-06-03 17:19:00,70.0,55.0,29.86,West,270,6.0,9.0,60,0.00,,,0.00,TxWx,2013-06-03 21:19:00,
2013-06-03 17:20:00,54.0,45.0,29.96,SSE,157,0.0,0.0,71,0.00,,,0.00,TxWx,2013-06-03 21:20:00,
2013-06-03 17:21:00,54.0,45.0,29.96,ESE,112,0.0,0.0,71,0.00,,,0.00,TxWx,2013-06-03 21:21:00,
2013-06-03 17:24:00,70.0,55.0,29.85,SSW,202,10.0,10.0,60,0.00,,,0.00,TxWx,2013-06-03 21:24:00,
2013-06-03 17:25:00,53.0,44.0,29.96,ESE,112,0.0,0.0,71,0.00,,,0.00,TxWx,2013-06-03 21:25:00,
2013-06-03 17:26:00,53.0,44.0,29.96,South,180,0.0,0.0,71,0.00,,,0.00,TxWx,2013-06-03 21:26:00,
2013-06-03 17:27:00,53.0,44.0,29.96,South,180,0.0,0.0,71,0.00,,,0.00,TxWx,2013-06-03 21:27:00,
2013-06-03 17:28:00,53.0,44.0,29.96,SSE,157,0.0,0.0,71,0.00,,,0.00,TxWx,2013-06-03 21:28:00,
2013-06-03 17:29:00,70.0,55.0,29.85,NNW,337,8.0,8.0,59,0.00,,,0.00,TxWx,2013-06-03 21:29:00,
2013-06-03 17:34:00,70.0,55.0,29.86,WNW,292,8.0,8.0,58,0.00,,,0.00,TxWx,2013-06-03 21:34:00,
2013-06-03 17:39:00,70.0,54.0,29.86,WNW,292,10.0,10.0,57,0.00,,,0.00,TxWx,2013-06-03 21:39:00,
2013-06-03 17:44:00,70.0,55.0,29.85,NW,315,5.0,7.0,58,0.00,,,0.00,TxWx,2013-06-03 21:44:00,
2013-06-03 17:49:00,70.0,54.0,29.85,WNW,292,7.0,7.0,57,0.00,,,0.00,TxWx,2013-06-03 21:49:00,
2013-06-03 17:54:00,70.0,54.0,29.85,SW,225,6.0,9.0,57,0.00,,,0.00,TxWx,2013-06-03 21:54:00,
2013-06-03 17:59:00,69.0,53.0,29.85,North,0,3.0,5.0,56,0.00,,,0.00,TxWx,2013-06-03 21:59:00,
2013-06-03 18:02:00,53.0,44.0,29.97,SSE,157,0.0,0.0,72,0.00,,,0.00,TxWx,2013-06-03 22:02:00,
2013-06-03 18:03:00,53.0,44.0,29.96,ESE,112,0.0,0.0,72,0.00,,,0.00,TxWx,2013-06-03 22:03:00,
2013-06-03 18:04:00,69.0,53.0,29.85,WNW,292,4.0,5.0,56,0.00,,,0.00,TxWx,2013-06-03 22:04:00,
2013-06-03 18:09:00,69.0,52.0,29.85,West,270,10.0,13.0,55,0.00,,,0.00,TxWx,2013-06-03 22:09:00,
2013-06-03 18:14:00,69.0,52.0,29.85,NW,315,7.0,7.0,55,0.00,,,0.00,TxWx,2013-06-03 22:14:00,
2013-06-03 18:19:00,70.0,53.0,29.85,WNW,292,3.0,3.0,55,0.00,,,0.00,TxWx,2013-06-03 22:19:00,
2013-06-03 18:25:00,69.0,51.0,29.86,West,270,8.0,9.0,53,0.00,,,0.00,TxWx,2013-06-03 22:25:00,
2013-06-03 18:30:00,69.0,51.0,29.86,WSW,247,2.0,5.0,54,0.00,,,0.00,TxWx,2013-06-03 22:30:00,
2013-06-03 18:35:00,69.0,51.0,29.86,West,270,4.0,5.0,54,0.00,,,0.00,TxWx,2013-06-03 22:35:00,
2013-06-03 18:40:00,69.0,51.0,29.86,SW,225,6.0,7.0,53,0.00,,,0.00,TxWx,2013-06-03 22:40:00,
2013-06-03 18:45:00,69.0,51.0,29.86,West,270,7.0,10.0,52,0.00,,,0.00,TxWx,2013-06-03 22:45:00,
2013-06-03 18:50:00,68.0,50.0,29.86,South,180,6.0,7.0,53,0.00,,,0.00,TxWx,2013-06-03 22:50:00,
2013-06-03 18:55:00,68.0,50.0,29.86,WSW,247,2.0,5.0,54,0.00,,,0.00,TxWx,2013-06-03 22:55:00,
2013-06-03 19:00:00,68.0,50.0,29.86,SSW,202,2.0,5.0,53,0.00,,,0.00,TxWx,2013-06-03 23:00:00,
2013-06-03 19:05:00,68.0,50.0,29.86,West,270,3.0,5.0,53,0.00,,,0.00,TxWx,2013-06-03 23:05:00,
2013-06-03 19:10:00,68.0,50.0,29.86,West,270,0.0,3.0,53,0.00,,,0.00,TxWx,2013-06-03 23:10:00,
2013-06-03 19:15:00,67.0,49.0,29.86,NW,315,7.0,8.0,53,0.00,,,0.00,TxWx,2013-06-03 23:15:00,
2013-06-03 19:20:00,67.0,49.0,29.87,NW,315,7.0,10.0,53,0.00,,,0.00,TxWx,2013-06-03 23:20:00,
2013-06-03 19:25:00,67.0,49.0,29.87,SW,225,6.0,7.0,53,0.00,,,0.00,TxWx,2013-06-03 23:25:00,
2013-06-03 19:30:00,67.0,49.0,29.87,West,270,5.0,8.0,52,0.00,,,0.00,TxWx,2013-06-03 23:30:00,
2013-06-03 19:36:00,66.0,48.0,29.87,NW,315,5.0,5.0,52,0.00,,,0.00,TxWx,2013-06-03 23:36:00,
2013-06-03 19:41:00,66.0,48.0,29.87,WNW,292,4.0,5.0,52,0.00,,,0.00,TxWx,2013-06-03 23:41:00,
2013-06-03 19:46:00,66.0,47.0,29.87,WNW,292,5.0,7.0,51,0.00,,,0.00,TxWx,2013-06-03 23:46:00,
2013-06-03 19:51:00,66.0,47.0,29.88,West,270,3.0,4.0,51,0.00,,,0.00,TxWx,2013-06-03 23:51:00,
2013-06-03 19:56:00,65.0,46.0,29.88,WNW,292,6.0,6.0,51,0.00,,,0.00,TxWx,2013-06-03 23:56:00,
2013-06-03 20:01:00,65.0,46.0,29.88,North,0,0.0,0.0,51,0.00,,,0.00,TxWx,2013-06-04 00:01:00,
2013-06-03 20:06:00,65.0,47.0,29.88,West,270,1.0,3.0,52,0.00,,,0.00,TxWx,2013-06-04 00:06:00,
2013-06-03 20:11:00,64.0,46.0,29.88,WNW,292,3.0,6.0,52,0.00,,,0.00,TxWx,2013-06-04 00:11:00,
2013-06-03 20:20:00,64.0,45.0,29.89,NNW,337,5.0,6.0,51,0.00,,,0.00,TxWx,2013-06-04 00:20:00,
2013-06-03 20:25:00,64.0,45.0,29.89,North,0,3.0,4.0,51,0.00,,,0.00,TxWx,2013-06-04 00:25:00,
2013-06-03 20:31:00,63.0,45.0,29.89,NNW,337,2.0,3.0,51,0.00,,,0.00,TxWx,2013-06-04 00:31:00,
2013-06-03 20:36:00,63.0,45.0,29.89,WNW,292,6.0,6.0,51,0.00,,,0.00,TxWx,2013-06-04 00:36:00,
2013-06-03 20:41:00,63.0,44.0,29.90,West,270,5.0,6.0,50,0.00,,,0.00,TxWx,2013-06-04 00:41:00,
2013-06-03 20:46:00,63.0,43.0,29.89,NW,315,5.0,10.0,48,0.00,,,0.00,TxWx,2013-06-04 00:46:00,
2013-06-03 20:51:00,63.0,41.0,29.90,West,270,4.0,9.0,44,0.00,,,0.00,TxWx,2013-06-04 00:51:00,
2013-06-03 20:56:00,63.0,39.0,29.90,WNW,292,10.0,11.0,43,0.00,,,0.00,TxWx,2013-06-04 00:56:00,
2013-06-03 21:01:00,62.0,38.0,29.90,West,270,3.0,4.0,41,0.00,,,0.00,TxWx,2013-06-04 01:01:00,
2013-06-03 21:06:00,62.0,37.0,29.90,WNW,292,3.0,4.0,40,0.00,,,0.00,TxWx,2013-06-04 01:06:00,
2013-06-03 21:11:00,62.0,37.0,29.91,NW,315,4.0,4.0,40,0.00,,,0.00,TxWx,2013-06-04 01:11:00,
2013-06-03 21:16:00,62.0,37.0,29.90,NNW,337,6.0,7.0,40,0.00,,,0.00,TxWx,2013-06-04 01:16:00,
2013-06-03 21:21:00,62.0,38.0,29.91,WNW,292,5.0,8.0,41,0.00,,,0.00,TxWx,2013-06-04 01:21:00,
2013-06-03 21:27:00,62.0,39.0,29.91,WNW,292,1.0,2.0,42,0.00,,,0.00,TxWx,2013-06-04 01:27:00,
2013-06-03 21:32:00,62.0,39.0,29.91,WSW,247,3.0,5.0,44,0.00,,,0.00,TxWx,2013-06-04 01:32:00,
2013-06-03 21:37:00,62.0,41.0,29.91,WNW,292,6.0,8.0,46,0.00,,,0.00,TxWx,2013-06-04 01:37:00,
2013-06-03 21:42:00,62.0,41.0,29.91,WNW,292,5.0,5.0,47,0.00,,,0.00,TxWx,2013-06-04 01:42:00,
2013-06-03 21:47:00,61.0,41.0,29.91,NW,315,6.0,6.0,48,0.00,,,0.00,TxWx,2013-06-04 01:47:00,
2013-06-03 21:52:00,61.0,42.0,29.92,NNW,337,4.0,5.0,49,0.00,,,0.00,TxWx,2013-06-04 01:52:00,
2013-06-03 21:57:00,61.0,42.0,29.92,SSE,157,2.0,3.0,50,0.00,,,0.00,TxWx,2013-06-04 01:57:00,
2013-06-03 22:02:00,61.0,42.0,29.92,North,0,0.0,0.0,50,0.00,,,0.00,TxWx,2013-06-04 02:02:00,
2013-06-03 22:07:00,61.0,43.0,29.92,NW,315,8.0,11.0,51,0.00,,,0.00,TxWx,2013-06-04 02:07:00,
2013-06-03 22:12:00,61.0,43.0,29.92,NE,45,0.0,1.0,52,0.00,,,0.00,TxWx,2013-06-04 02:12:00,
2013-06-03 22:17:00,61.0,44.0,29.93,WNW,292,6.0,8.0,53,0.00,,,0.00,TxWx,2013-06-04 02:17:00,
2013-06-03 22:22:00,61.0,44.0,29.93,West,270,5.0,8.0,54,0.00,,,0.00,TxWx,2013-06-04 02:22:00,
2013-06-03 22:27:00,61.0,45.0,29.93,WSW,247,4.0,6.0,55,0.00,,,0.00,TxWx,2013-06-04 02:27:00,
2013-06-03 22:32:00,60.0,44.0,29.93,North,0,1.0,2.0,56,0.00,,,0.00,TxWx,2013-06-04 02:32:00,
2013-06-03 22:38:00,60.0,44.0,29.93,SW,225,2.0,3.0,57,0.00,,,0.00,TxWx,2013-06-04 02:38:00,
2013-06-03 22:43:00,60.0,45.0,29.93,WSW,247,5.0,5.0,57,0.00,,,0.00,TxWx,2013-06-04 02:43:00,
2013-06-03 22:48:00,60.0,45.0,29.93,WNW,292,3.0,3.0,58,0.00,,,0.00,TxWx,2013-06-04 02:48:00,
2013-06-03 22:53:00,60.0,45.0,29.93,SW,225,2.0,2.0,59,0.00,,,0.00,TxWx,2013-06-04 02:53:00,
2013-06-03 22:58:00,59.0,45.0,29.93,South,180,1.0,1.0,60,0.00,,,0.00,TxWx,2013-06-04 02:58:00,
2013-06-03 23:03:00,59.0,45.0,29.93,NNW,337,2.0,2.0,60,0.00,,,0.00,TxWx,2013-06-04 03:03:00,
2013-06-03 23:08:00,59.0,45.0,29.94,SSW,202,0.0,0.0,61,0.00,,,0.00,TxWx,2013-06-04 03:08:00,
2013-06-03 23:11:00,56.0,46.0,30.00,WSW,247,7.0,12.0,70,0.00,,,0.00,TxWx,2013-06-04 03:11:00,
2013-06-03 23:12:00,56.0,46.0,30.00,WNW,292,4.0,5.0,70,0.00,,,0.00,TxWx,2013-06-04 03:12:00,
2013-06-03 23:13:00,59.0,46.0,29.94,SW,225,8.0,9.0,62,0.00,,,0.00,TxWx,2013-06-04 03:13:00,
2013-06-03 23:14:00,56.0,46.0,30.00,NW,315,6.0,6.0,70,0.00,,,0.00,TxWx,2013-06-04 03:14:00,
2013-06-03 23:15:00,56.0,46.0,30.00,WNW,292,4.0,5.0,70,0.00,,,0.00,TxWx,2013-06-04 03:15:00,
2013-06-03 23:18:00,59.0,46.0,29.94,SE,135,3.0,3.0,62,0.00,,,0.00,TxWx,2013-06-04 03:18:00,
2013-06-03 23:23:00,58.0,45.0,29.94,SW,225,3.0,3.0,63,0.00,,,0.00,TxWx,2013-06-04 03:23:00,
2013-06-03 23:28:00,58.0,45.0,29.94,South,180,0.0,0.0,63,0.00,,,0.00,TxWx,2013-06-04 03:28:00,
2013-06-03 23:33:00,58.0,45.0,29.94,SSW,202,1.0,2.0,63,0.00,,,0.00,TxWx,2013-06-04 03:33:00,
2013-06-03 23:38:00,58.0,45.0,29.94,WNW,292,2.0,2.0,63,0.00,,,0.00,TxWx,2013-06-04 03:38:00,
2013-06-03 23:43:00,58.0,45.0,29.95,SW,225,4.0,4.0,63,0.00,,,0.00,TxWx,2013-06-04 03:43:00,
2013-06-03 23:48:00,58.0,45.0,29.95,South,180,0.0,0.0,63,0.00,,,0.00,TxWx,2013-06-04 03:48:00,
2013-06-03 23:54:00,58.0,45.0,29.95,NNW,337,2.0,5.0,63,0.00,,,0.00,TxWx,2013-06-04 03:54:00,
2013-06-03 23:59:00,58.0,45.0,29.95,South,180,0.0,0.0,63,0.00,,,0.00,TxWx,2013-06-04 03:59:00,